sensor_id;sensor_type;location;lat;lon;timestamp;P1;durP1;ratioP1;P2;durP2;ratioP2
6898;SDS011;3488;42.616;23.350;2023-04-15T00:02:14;4.78;;;2.67;;
6898;SDS011;3488;42.616;23.350;2023-04-15T00:04:42;5.13;;;2.25;;
6898;SDS011;3488;42.616;23.350;2023-04-15T00:07:10;5.75;;;2.40;;
6898;SDS011;3488;42.616;23.350;2023-04-15T00:09:38;6.75;;;2.05;;
6898;SDS011;3488;42.616;23.350;2023-04-15T00:12:06;3.85;;;2.08;;
6898;SDS011;3488;42.616;23.350;2023-04-15T00:14:33;3.17;;;2.63;;
6898;SDS011;3488;42.616;23.350;2023-04-15T00:17:01;2.35;;;2.15;;
6898;SDS011;3488;42.616;23.350;2023-04-15T00:19:29;2.05;;;1.95;;
6898;SDS011;3488;42.616;23.350;2023-04-15T00:21:56;3.00;;;1.92;;
6898;SDS011;3488;42.616;23.350;2023-04-15T00:24:23;2.08;;;1.95;;
6898;SDS011;3488;42.616;23.350;2023-04-15T00:26:52;3.47;;;2.80;;
6898;SDS011;3488;42.616;23.350;2023-04-15T00:29:19;3.00;;;2.80;;
6898;SDS011;3488;42.616;23.350;2023-04-15T00:31:45;2.67;;;2.53;;
6898;SDS011;3488;42.616;23.350;2023-04-15T00:34:12;2.42;;;2.33;;
6898;SDS011;3488;42.616;23.350;2023-04-15T00:36:39;2.30;;;2.17;;
6898;SDS011;3488;42.616;23.350;2023-04-15T00:39:06;5.25;;;2.75;;
6898;SDS011;3488;42.616;23.350;2023-04-15T00:41:33;3.28;;;2.60;;
6898;SDS011;3488;42.616;23.350;2023-04-15T00:44:05;2.97;;;2.60;;
6898;SDS011;3488;42.616;23.350;2023-04-15T00:46:34;2.60;;;2.40;;
6898;SDS011;3488;42.616;23.350;2023-04-15T00:49:02;4.22;;;2.50;;
6898;SDS011;3488;42.616;23.350;2023-04-15T00:51:30;3.90;;;2.60;;
6898;SDS011;3488;42.616;23.350;2023-04-15T00:54:00;2.80;;;2.13;;
6898;SDS011;3488;42.616;23.350;2023-04-15T00:56:27;2.50;;;2.30;;
6898;SDS011;3488;42.616;23.350;2023-04-15T00:58:55;3.75;;;2.30;;
6898;SDS011;3488;42.616;23.350;2023-04-15T01:01:24;2.60;;;2.40;;
6898;SDS011;3488;42.616;23.350;2023-04-15T01:03:53;3.60;;;2.60;;
6898;SDS011;3488;42.616;23.350;2023-04-15T01:06:21;4.40;;;2.30;;
6898;SDS011;3488;42.616;23.350;2023-04-15T01:08:49;2.05;;;1.95;;
6898;SDS011;3488;42.616;23.350;2023-04-15T01:11:16;2.15;;;1.90;;
6898;SDS011;3488;42.616;23.350;2023-04-15T01:13:44;3.13;;;2.58;;
6898;SDS011;3488;42.616;23.350;2023-04-15T01:16:13;2.13;;;1.95;;
6898;SDS011;3488;42.616;23.350;2023-04-15T01:18:42;2.08;;;1.92;;
6898;SDS011;3488;42.616;23.350;2023-04-15T01:21:10;1.52;;;1.40;;
6898;SDS011;3488;42.616;23.350;2023-04-15T01:23:37;2.22;;;2.03;;
6898;SDS011;3488;42.616;23.350;2023-04-15T01:26:06;2.00;;;1.70;;
6898;SDS011;3488;42.616;23.350;2023-04-15T01:28:34;1.67;;;1.55;;
6898;SDS011;3488;42.616;23.350;2023-04-15T01:31:08;6.05;;;2.03;;
6898;SDS011;3488;42.616;23.350;2023-04-15T01:33:36;2.10;;;1.75;;
6898;SDS011;3488;42.616;23.350;2023-04-15T01:36:04;1.67;;;1.67;;
6898;SDS011;3488;42.616;23.350;2023-04-15T01:38:32;2.05;;;1.70;;
6898;SDS011;3488;42.616;23.350;2023-04-15T01:41:00;1.70;;;1.60;;
6898;SDS011;3488;42.616;23.350;2023-04-15T01:43:29;1.50;;;1.40;;
6898;SDS011;3488;42.616;23.350;2023-04-15T01:45:56;1.73;;;1.63;;
6898;SDS011;3488;42.616;23.350;2023-04-15T01:48:23;1.73;;;1.63;;
6898;SDS011;3488;42.616;23.350;2023-04-15T01:50:51;2.05;;;1.48;;
6898;SDS011;3488;42.616;23.350;2023-04-15T01:53:18;2.95;;;1.60;;
6898;SDS011;3488;42.616;23.350;2023-04-15T01:55:45;1.95;;;1.85;;
6898;SDS011;3488;42.616;23.350;2023-04-15T01:58:12;2.83;;;1.88;;
6898;SDS011;3488;42.616;23.350;2023-04-15T02:00:41;1.55;;;1.45;;
6898;SDS011;3488;42.616;23.350;2023-04-15T02:03:08;4.50;;;2.33;;
6898;SDS011;3488;42.616;23.350;2023-04-15T02:05:35;1.40;;;1.30;;
6898;SDS011;3488;42.616;23.350;2023-04-15T02:08:02;2.85;;;2.25;;
6898;SDS011;3488;42.616;23.350;2023-04-15T02:10:29;4.00;;;2.55;;
6898;SDS011;3488;42.616;23.350;2023-04-15T02:12:56;1.73;;;1.70;;
6898;SDS011;3488;42.616;23.350;2023-04-15T02:15:22;2.22;;;2.13;;
6898;SDS011;3488;42.616;23.350;2023-04-15T02:17:51;1.67;;;1.58;;
6898;SDS011;3488;42.616;23.350;2023-04-15T02:20:19;2.78;;;1.73;;
6898;SDS011;3488;42.616;23.350;2023-04-15T02:22:46;2.08;;;1.70;;
6898;SDS011;3488;42.616;23.350;2023-04-15T02:25:14;1.92;;;1.83;;
6898;SDS011;3488;42.616;23.350;2023-04-15T02:27:42;1.98;;;1.75;;
6898;SDS011;3488;42.616;23.350;2023-04-15T02:30:09;1.70;;;1.60;;
6898;SDS011;3488;42.616;23.350;2023-04-15T02:32:36;1.83;;;1.73;;
6898;SDS011;3488;42.616;23.350;2023-04-15T02:35:06;1.92;;;1.83;;
6898;SDS011;3488;42.616;23.350;2023-04-15T02:37:34;1.42;;;1.42;;
6898;SDS011;3488;42.616;23.350;2023-04-15T02:40:06;1.42;;;1.42;;
6898;SDS011;3488;42.616;23.350;2023-04-15T02:42:36;3.83;;;1.50;;
6898;SDS011;3488;42.616;23.350;2023-04-15T02:45:03;1.40;;;1.30;;
6898;SDS011;3488;42.616;23.350;2023-04-15T02:47:31;1.23;;;1.23;;
6898;SDS011;3488;42.616;23.350;2023-04-15T02:49:58;1.00;;;1.00;;
6898;SDS011;3488;42.616;23.350;2023-04-15T02:52:27;2.15;;;1.35;;
6898;SDS011;3488;42.616;23.350;2023-04-15T02:54:54;3.03;;;1.17;;
6898;SDS011;3488;42.616;23.350;2023-04-15T02:57:24;1.60;;;1.30;;
6898;SDS011;3488;42.616;23.350;2023-04-15T02:59:53;2.25;;;1.38;;
6898;SDS011;3488;42.616;23.350;2023-04-15T03:02:20;2.65;;;1.50;;
6898;SDS011;3488;42.616;23.350;2023-04-15T03:04:47;3.30;;;2.17;;
6898;SDS011;3488;42.616;23.350;2023-04-15T03:07:14;4.35;;;2.30;;
6898;SDS011;3488;42.616;23.350;2023-04-15T03:09:44;5.47;;;1.95;;
6898;SDS011;3488;42.616;23.350;2023-04-15T03:12:11;2.47;;;2.05;;
6898;SDS011;3488;42.616;23.350;2023-04-15T03:14:38;2.05;;;1.92;;
6898;SDS011;3488;42.616;23.350;2023-04-15T03:17:05;3.55;;;2.72;;
6898;SDS011;3488;42.616;23.350;2023-04-15T03:19:37;3.17;;;2.92;;
6898;SDS011;3488;42.616;23.350;2023-04-15T03:22:04;3.30;;;3.00;;
6898;SDS011;3488;42.616;23.350;2023-04-15T03:24:31;6.28;;;4.00;;
6898;SDS011;3488;42.616;23.350;2023-04-15T03:27:00;5.15;;;4.63;;
6898;SDS011;3488;42.616;23.350;2023-04-15T03:29:30;6.72;;;5.20;;
6898;SDS011;3488;42.616;23.350;2023-04-15T03:31:57;6.93;;;5.90;;
6898;SDS011;3488;42.616;23.350;2023-04-15T03:34:24;10.50;;;5.50;;
6898;SDS011;3488;42.616;23.350;2023-04-15T03:36:51;8.25;;;5.25;;
6898;SDS011;3488;42.616;23.350;2023-04-15T03:39:18;6.07;;;4.97;;
6898;SDS011;3488;42.616;23.350;2023-04-15T03:41:45;7.03;;;5.32;;
6898;SDS011;3488;42.616;23.350;2023-04-15T03:44:13;5.57;;;5.00;;
6898;SDS011;3488;42.616;23.350;2023-04-15T03:46:40;6.32;;;4.35;;
6898;SDS011;3488;42.616;23.350;2023-04-15T03:49:07;6.32;;;4.85;;
6898;SDS011;3488;42.616;23.350;2023-04-15T03:51:34;7.57;;;4.85;;
6898;SDS011;3488;42.616;23.350;2023-04-15T03:54:01;7.05;;;5.72;;
6898;SDS011;3488;42.616;23.350;2023-04-15T03:56:28;5.30;;;4.80;;
6898;SDS011;3488;42.616;23.350;2023-04-15T03:58:55;5.40;;;4.45;;
6898;SDS011;3488;42.616;23.350;2023-04-15T04:01:23;4.95;;;4.55;;
6898;SDS011;3488;42.616;23.350;2023-04-15T04:03:50;7.13;;;5.03;;
6898;SDS011;3488;42.616;23.350;2023-04-15T04:06:17;4.65;;;3.88;;
6898;SDS011;3488;42.616;23.350;2023-04-15T04:08:45;3.10;;;2.85;;
6898;SDS011;3488;42.616;23.350;2023-04-15T04:11:12;3.08;;;2.67;;
6898;SDS011;3488;42.616;23.350;2023-04-15T04:13:39;3.28;;;2.47;;
6898;SDS011;3488;42.616;23.350;2023-04-15T04:16:06;4.07;;;3.20;;
6898;SDS011;3488;42.616;23.350;2023-04-15T04:18:34;5.88;;;2.80;;
6898;SDS011;3488;42.616;23.350;2023-04-15T04:21:01;4.43;;;3.40;;
6898;SDS011;3488;42.616;23.350;2023-04-15T04:23:28;4.97;;;3.83;;
6898;SDS011;3488;42.616;23.350;2023-04-15T04:25:55;5.18;;;4.50;;
6898;SDS011;3488;42.616;23.350;2023-04-15T04:28:22;9.70;;;4.85;;
6898;SDS011;3488;42.616;23.350;2023-04-15T04:30:49;6.03;;;4.53;;
6898;SDS011;3488;42.616;23.350;2023-04-15T04:33:16;5.13;;;4.18;;
6898;SDS011;3488;42.616;23.350;2023-04-15T04:35:44;6.90;;;4.82;;
6898;SDS011;3488;42.616;23.350;2023-04-15T04:38:14;9.20;;;5.20;;
6898;SDS011;3488;42.616;23.350;2023-04-15T04:40:41;8.32;;;5.03;;
6898;SDS011;3488;42.616;23.350;2023-04-15T04:43:08;6.03;;;5.15;;
6898;SDS011;3488;42.616;23.350;2023-04-15T04:45:35;9.13;;;4.90;;
6898;SDS011;3488;42.616;23.350;2023-04-15T04:48:02;5.32;;;4.68;;
6898;SDS011;3488;42.616;23.350;2023-04-15T04:50:31;4.03;;;3.72;;
6898;SDS011;3488;42.616;23.350;2023-04-15T04:52:59;4.38;;;3.40;;
6898;SDS011;3488;42.616;23.350;2023-04-15T04:55:26;3.80;;;3.40;;
6898;SDS011;3488;42.616;23.350;2023-04-15T04:57:53;5.72;;;4.57;;
6898;SDS011;3488;42.616;23.350;2023-04-15T05:00:20;7.70;;;4.63;;
6898;SDS011;3488;42.616;23.350;2023-04-15T05:02:47;6.07;;;4.70;;
6898;SDS011;3488;42.616;23.350;2023-04-15T05:05:15;9.30;;;5.45;;
6898;SDS011;3488;42.616;23.350;2023-04-15T05:07:41;9.63;;;5.57;;
6898;SDS011;3488;42.616;23.350;2023-04-15T05:10:10;6.60;;;5.82;;
6898;SDS011;3488;42.616;23.350;2023-04-15T05:12:38;5.68;;;5.15;;
6898;SDS011;3488;42.616;23.350;2023-04-15T05:15:06;8.77;;;5.38;;
6898;SDS011;3488;42.616;23.350;2023-04-15T05:17:35;5.75;;;5.03;;
6898;SDS011;3488;42.616;23.350;2023-04-15T05:20:02;11.75;;;5.43;;
6898;SDS011;3488;42.616;23.350;2023-04-15T05:22:30;8.27;;;5.25;;
6898;SDS011;3488;42.616;23.350;2023-04-15T05:24:57;11.20;;;5.32;;
6898;SDS011;3488;42.616;23.350;2023-04-15T05:27:25;5.53;;;4.90;;
6898;SDS011;3488;42.616;23.350;2023-04-15T05:29:52;7.72;;;4.90;;
6898;SDS011;3488;42.616;23.350;2023-04-15T05:32:20;6.55;;;4.30;;
6898;SDS011;3488;42.616;23.350;2023-04-15T05:34:47;8.38;;;4.10;;
6898;SDS011;3488;42.616;23.350;2023-04-15T05:37:14;6.28;;;3.90;;
6898;SDS011;3488;42.616;23.350;2023-04-15T05:39:41;4.68;;;4.07;;
6898;SDS011;3488;42.616;23.350;2023-04-15T05:42:08;4.93;;;3.92;;
6898;SDS011;3488;42.616;23.350;2023-04-15T05:44:36;7.65;;;5.55;;
6898;SDS011;3488;42.616;23.350;2023-04-15T05:47:03;7.80;;;5.20;;
6898;SDS011;3488;42.616;23.350;2023-04-15T05:49:32;5.22;;;4.68;;
6898;SDS011;3488;42.616;23.350;2023-04-15T05:51:58;5.68;;;5.07;;
6898;SDS011;3488;42.616;23.350;2023-04-15T05:54:25;5.25;;;4.22;;
6898;SDS011;3488;42.616;23.350;2023-04-15T05:56:52;5.22;;;4.28;;
6898;SDS011;3488;42.616;23.350;2023-04-15T05:59:20;6.97;;;4.07;;
6898;SDS011;3488;42.616;23.350;2023-04-15T06:01:48;4.90;;;3.85;;
6898;SDS011;3488;42.616;23.350;2023-04-15T06:04:16;4.18;;;2.90;;
6898;SDS011;3488;42.616;23.350;2023-04-15T06:06:43;3.35;;;3.13;;
6898;SDS011;3488;42.616;23.350;2023-04-15T06:09:10;3.47;;;3.15;;
6898;SDS011;3488;42.616;23.350;2023-04-15T06:11:37;4.55;;;3.08;;
6898;SDS011;3488;42.616;23.350;2023-04-15T06:14:05;4.18;;;3.78;;
6898;SDS011;3488;42.616;23.350;2023-04-15T06:16:32;4.22;;;3.58;;
6898;SDS011;3488;42.616;23.350;2023-04-15T06:19:02;4.47;;;3.25;;
6898;SDS011;3488;42.616;23.350;2023-04-15T06:21:29;3.55;;;2.40;;
6898;SDS011;3488;42.616;23.350;2023-04-15T06:23:57;3.05;;;2.75;;
6898;SDS011;3488;42.616;23.350;2023-04-15T06:26:25;3.35;;;2.90;;
6898;SDS011;3488;42.616;23.350;2023-04-15T06:28:53;4.30;;;2.88;;
6898;SDS011;3488;42.616;23.350;2023-04-15T06:31:20;3.65;;;3.35;;
6898;SDS011;3488;42.616;23.350;2023-04-15T06:33:47;4.97;;;3.20;;
6898;SDS011;3488;42.616;23.350;2023-04-15T06:36:16;4.47;;;2.55;;
6898;SDS011;3488;42.616;23.350;2023-04-15T06:38:43;4.70;;;2.53;;
6898;SDS011;3488;42.616;23.350;2023-04-15T06:41:10;2.95;;;2.20;;
6898;SDS011;3488;42.616;23.350;2023-04-15T06:43:38;3.38;;;2.58;;
6898;SDS011;3488;42.616;23.350;2023-04-15T06:46:04;4.68;;;2.42;;
6898;SDS011;3488;42.616;23.350;2023-04-15T06:48:31;5.38;;;2.80;;
6898;SDS011;3488;42.616;23.350;2023-04-15T06:50:58;2.63;;;2.42;;
6898;SDS011;3488;42.616;23.350;2023-04-15T06:53:27;3.35;;;2.42;;
6898;SDS011;3488;42.616;23.350;2023-04-15T06:55:54;5.07;;;2.55;;
6898;SDS011;3488;42.616;23.350;2023-04-15T06:58:21;4.47;;;2.50;;
6898;SDS011;3488;42.616;23.350;2023-04-15T07:00:48;2.97;;;2.78;;
6898;SDS011;3488;42.616;23.350;2023-04-15T07:03:15;2.92;;;2.58;;
6898;SDS011;3488;42.616;23.350;2023-04-15T07:05:42;3.90;;;2.67;;
6898;SDS011;3488;42.616;23.350;2023-04-15T07:08:09;4.55;;;2.97;;
6898;SDS011;3488;42.616;23.350;2023-04-15T07:10:37;3.47;;;2.90;;
6898;SDS011;3488;42.616;23.350;2023-04-15T07:13:04;3.05;;;2.70;;
6898;SDS011;3488;42.616;23.350;2023-04-15T07:15:33;6.00;;;3.08;;
6898;SDS011;3488;42.616;23.350;2023-04-15T07:18:00;5.50;;;2.30;;
6898;SDS011;3488;42.616;23.350;2023-04-15T07:20:27;4.25;;;2.80;;
6898;SDS011;3488;42.616;23.350;2023-04-15T07:22:54;2.58;;;2.38;;
6898;SDS011;3488;42.616;23.350;2023-04-15T07:25:21;3.20;;;2.90;;
6898;SDS011;3488;42.616;23.350;2023-04-15T07:27:50;4.25;;;3.08;;
6898;SDS011;3488;42.616;23.350;2023-04-15T07:30:18;4.03;;;3.17;;
6898;SDS011;3488;42.616;23.350;2023-04-15T07:32:45;4.13;;;3.13;;
6898;SDS011;3488;42.616;23.350;2023-04-15T07:35:12;3.38;;;3.08;;
6898;SDS011;3488;42.616;23.350;2023-04-15T07:37:39;2.60;;;2.35;;
6898;SDS011;3488;42.616;23.350;2023-04-15T07:40:07;3.80;;;2.38;;
6898;SDS011;3488;42.616;23.350;2023-04-15T07:42:35;4.53;;;2.15;;
6898;SDS011;3488;42.616;23.350;2023-04-15T07:45:04;2.70;;;1.90;;
6898;SDS011;3488;42.616;23.350;2023-04-15T07:47:32;2.30;;;1.92;;
6898;SDS011;3488;42.616;23.350;2023-04-15T07:49:59;2.22;;;2.10;;
6898;SDS011;3488;42.616;23.350;2023-04-15T07:52:26;3.83;;;2.88;;
6898;SDS011;3488;42.616;23.350;2023-04-15T07:54:53;4.10;;;2.60;;
6898;SDS011;3488;42.616;23.350;2023-04-15T07:57:20;2.70;;;2.50;;
6898;SDS011;3488;42.616;23.350;2023-04-15T07:59:47;2.75;;;2.60;;
6898;SDS011;3488;42.616;23.350;2023-04-15T08:02:15;3.33;;;3.03;;
6898;SDS011;3488;42.616;23.350;2023-04-15T08:04:42;4.03;;;3.47;;
6898;SDS011;3488;42.616;23.350;2023-04-15T08:07:09;4.90;;;3.03;;
6898;SDS011;3488;42.616;23.350;2023-04-15T08:09:35;6.07;;;3.08;;
6898;SDS011;3488;42.616;23.350;2023-04-15T08:12:03;3.20;;;2.90;;
6898;SDS011;3488;42.616;23.350;2023-04-15T08:14:32;3.80;;;3.45;;
6898;SDS011;3488;42.616;23.350;2023-04-15T08:16:59;6.78;;;2.90;;
6898;SDS011;3488;42.616;23.350;2023-04-15T08:19:27;4.90;;;2.72;;
6898;SDS011;3488;42.616;23.350;2023-04-15T08:21:54;3.00;;;2.65;;
6898;SDS011;3488;42.616;23.350;2023-04-15T08:24:21;3.63;;;2.30;;
6898;SDS011;3488;42.616;23.350;2023-04-15T08:26:48;5.95;;;1.75;;
6898;SDS011;3488;42.616;23.350;2023-04-15T08:29:15;2.40;;;2.20;;
6898;SDS011;3488;42.616;23.350;2023-04-15T08:31:42;5.47;;;2.10;;
6898;SDS011;3488;42.616;23.350;2023-04-15T08:34:10;3.33;;;2.33;;
6898;SDS011;3488;42.616;23.350;2023-04-15T08:36:38;2.35;;;1.90;;
6898;SDS011;3488;42.616;23.350;2023-04-15T08:39:05;2.10;;;1.90;;
6898;SDS011;3488;42.616;23.350;2023-04-15T08:41:33;4.40;;;2.20;;
6898;SDS011;3488;42.616;23.350;2023-04-15T08:44:05;4.80;;;1.90;;
6898;SDS011;3488;42.616;23.350;2023-04-15T08:46:33;2.90;;;2.15;;
6898;SDS011;3488;42.616;23.350;2023-04-15T08:49:00;2.85;;;2.03;;
6898;SDS011;3488;42.616;23.350;2023-04-15T08:51:30;1.83;;;1.73;;
6898;SDS011;3488;42.616;23.350;2023-04-15T08:53:59;2.08;;;1.67;;
6898;SDS011;3488;42.616;23.350;2023-04-15T08:56:27;3.03;;;1.35;;
6898;SDS011;3488;42.616;23.350;2023-04-15T08:58:56;2.20;;;2.00;;
6898;SDS011;3488;42.616;23.350;2023-04-15T09:01:24;4.63;;;1.55;;
6898;SDS011;3488;42.616;23.350;2023-04-15T09:03:52;2.40;;;1.88;;
6898;SDS011;3488;42.616;23.350;2023-04-15T09:06:20;2.45;;;1.33;;
6898;SDS011;3488;42.616;23.350;2023-04-15T09:08:48;4.50;;;1.73;;
6898;SDS011;3488;42.616;23.350;2023-04-15T09:11:18;2.15;;;1.77;;
6898;SDS011;3488;42.616;23.350;2023-04-15T09:13:48;2.67;;;1.45;;
6898;SDS011;3488;42.616;23.350;2023-04-15T09:16:15;3.13;;;1.75;;
6898;SDS011;3488;42.616;23.350;2023-04-15T09:18:41;2.47;;;2.00;;
6898;SDS011;3488;42.616;23.350;2023-04-15T09:21:09;1.80;;;1.70;;
6898;SDS011;3488;42.616;23.350;2023-04-15T09:23:39;2.20;;;1.75;;
6898;SDS011;3488;42.616;23.350;2023-04-15T09:26:08;2.35;;;1.25;;
6898;SDS011;3488;42.616;23.350;2023-04-15T09:28:41;1.08;;;1.08;;
6898;SDS011;3488;42.616;23.350;2023-04-15T09:31:08;2.50;;;1.33;;
6898;SDS011;3488;42.616;23.350;2023-04-15T09:33:36;1.63;;;1.35;;
6898;SDS011;3488;42.616;23.350;2023-04-15T09:36:20;1.48;;;1.20;;
6898;SDS011;3488;42.616;23.350;2023-04-15T09:38:53;1.70;;;1.60;;
6898;SDS011;3488;42.616;23.350;2023-04-15T09:41:21;1.92;;;1.20;;
6898;SDS011;3488;42.616;23.350;2023-04-15T09:43:50;1.65;;;1.55;;
6898;SDS011;3488;42.616;23.350;2023-04-15T09:46:17;1.38;;;1.10;;
6898;SDS011;3488;42.616;23.350;2023-04-15T09:48:45;0.63;;;0.45;;
6898;SDS011;3488;42.616;23.350;2023-04-15T09:51:12;2.13;;;1.02;;
6898;SDS011;3488;42.616;23.350;2023-04-15T09:53:39;0.52;;;0.52;;
6898;SDS011;3488;42.616;23.350;2023-04-15T09:56:06;1.00;;;0.65;;
6898;SDS011;3488;42.616;23.350;2023-04-15T09:58:37;1.70;;;1.10;;
6898;SDS011;3488;42.616;23.350;2023-04-15T10:01:08;1.33;;;1.30;;
6898;SDS011;3488;42.616;23.350;2023-04-15T10:03:35;3.33;;;1.65;;
6898;SDS011;3488;42.616;23.350;2023-04-15T10:06:06;1.80;;;1.25;;
6898;SDS011;3488;42.616;23.350;2023-04-15T10:08:34;1.85;;;1.35;;
6898;SDS011;3488;42.616;23.350;2023-04-15T10:11:01;0.80;;;0.80;;
6898;SDS011;3488;42.616;23.350;2023-04-15T10:13:29;1.25;;;1.20;;
6898;SDS011;3488;42.616;23.350;2023-04-15T10:16:03;1.17;;;1.08;;
6898;SDS011;3488;42.616;23.350;2023-04-15T10:18:33;3.47;;;1.02;;
6898;SDS011;3488;42.616;23.350;2023-04-15T10:21:01;2.67;;;1.23;;
6898;SDS011;3488;42.616;23.350;2023-04-15T10:23:30;1.60;;;1.30;;
6898;SDS011;3488;42.616;23.350;2023-04-15T10:25:58;4.03;;;1.20;;
6898;SDS011;3488;42.616;23.350;2023-04-15T10:28:25;2.88;;;1.15;;
6898;SDS011;3488;42.616;23.350;2023-04-15T10:30:53;0.85;;;0.85;;
6898;SDS011;3488;42.616;23.350;2023-04-15T10:33:21;1.27;;;1.08;;
6898;SDS011;3488;42.616;23.350;2023-04-15T10:35:51;1.30;;;1.13;;
6898;SDS011;3488;42.616;23.350;2023-04-15T10:41:13;1.13;;;0.80;;
6898;SDS011;3488;42.616;23.350;2023-04-15T10:43:44;1.05;;;1.05;;
6898;SDS011;3488;42.616;23.350;2023-04-15T10:46:17;1.33;;;1.02;;
6898;SDS011;3488;42.616;23.350;2023-04-15T10:48:48;2.22;;;1.35;;
6898;SDS011;3488;42.616;23.350;2023-04-15T10:51:26;1.10;;;1.00;;
6898;SDS011;3488;42.616;23.350;2023-04-15T10:53:55;0.65;;;0.60;;
6898;SDS011;3488;42.616;23.350;2023-04-15T10:56:24;2.28;;;0.90;;
6898;SDS011;3488;42.616;23.350;2023-04-15T10:58:51;0.57;;;0.50;;
6898;SDS011;3488;42.616;23.350;2023-04-15T11:01:18;1.38;;;0.47;;
6898;SDS011;3488;42.616;23.350;2023-04-15T11:03:48;0.88;;;0.47;;
6898;SDS011;3488;42.616;23.350;2023-04-15T11:06:16;1.65;;;0.65;;
6898;SDS011;3488;42.616;23.350;2023-04-15T11:08:56;1.08;;;0.60;;
6898;SDS011;3488;42.616;23.350;2023-04-15T11:14:38;3.85;;;0.57;;
6898;SDS011;3488;42.616;23.350;2023-04-15T11:17:07;0.20;;;0.20;;
6898;SDS011;3488;42.616;23.350;2023-04-15T11:19:40;0.70;;;0.70;;
6898;SDS011;3488;42.616;23.350;2023-04-15T11:22:17;1.38;;;0.57;;
6898;SDS011;3488;42.616;23.350;2023-04-15T11:24:49;0.52;;;0.17;;
6898;SDS011;3488;42.616;23.350;2023-04-15T11:27:20;0.45;;;0.45;;
6898;SDS011;3488;42.616;23.350;2023-04-15T11:29:47;0.70;;;0.70;;
6898;SDS011;3488;42.616;23.350;2023-04-15T11:32:14;0.65;;;0.60;;
6898;SDS011;3488;42.616;23.350;2023-04-15T11:34:41;0.80;;;0.80;;
6898;SDS011;3488;42.616;23.350;2023-04-15T11:37:12;0.50;;;0.50;;
6898;SDS011;3488;42.616;23.350;2023-04-15T11:39:39;2.35;;;0.50;;
6898;SDS011;3488;42.616;23.350;2023-04-15T11:42:17;3.22;;;0.30;;
6898;SDS011;3488;42.616;23.350;2023-04-15T11:44:45;0.70;;;0.70;;
6898;SDS011;3488;42.616;23.350;2023-04-15T11:47:22;1.75;;;0.25;;
6898;SDS011;3488;42.616;23.350;2023-04-15T11:49:50;0.47;;;0.47;;
6898;SDS011;3488;42.616;23.350;2023-04-15T11:52:19;0.90;;;0.30;;
6898;SDS011;3488;42.616;23.350;2023-04-15T11:54:47;0.80;;;0.80;;
6898;SDS011;3488;42.616;23.350;2023-04-15T11:57:14;0.50;;;0.50;;
6898;SDS011;3488;42.616;23.350;2023-04-15T11:59:42;0.30;;;0.30;;
6898;SDS011;3488;42.616;23.350;2023-04-15T12:02:10;0.50;;;0.47;;
6898;SDS011;3488;42.616;23.350;2023-04-15T12:04:38;0.90;;;0.75;;
6898;SDS011;3488;42.616;23.350;2023-04-15T12:07:05;3.15;;;0.60;;
6898;SDS011;3488;42.616;23.350;2023-04-15T12:09:53;2.58;;;0.63;;
6898;SDS011;3488;42.616;23.350;2023-04-15T12:12:21;1.30;;;0.38;;
6898;SDS011;3488;42.616;23.350;2023-04-15T12:14:54;0.80;;;0.80;;
6898;SDS011;3488;42.616;23.350;2023-04-15T12:17:23;0.45;;;0.45;;
6898;SDS011;3488;42.616;23.350;2023-04-15T12:19:54;0.40;;;0.40;;
6898;SDS011;3488;42.616;23.350;2023-04-15T12:22:22;1.48;;;0.40;;
6898;SDS011;3488;42.616;23.350;2023-04-15T12:24:53;0.20;;;0.20;;
6898;SDS011;3488;42.616;23.350;2023-04-15T12:27:24;0.70;;;0.70;;
6898;SDS011;3488;42.616;23.350;2023-04-15T12:29:56;0.50;;;0.50;;
6898;SDS011;3488;42.616;23.350;2023-04-15T12:32:33;0.45;;;0.45;;
6898;SDS011;3488;42.616;23.350;2023-04-15T12:35:01;0.75;;;0.60;;
6898;SDS011;3488;42.616;23.350;2023-04-15T12:37:28;1.05;;;0.60;;
6898;SDS011;3488;42.616;23.350;2023-04-15T12:39:55;1.20;;;0.63;;
6898;SDS011;3488;42.616;23.350;2023-04-15T12:42:22;2.15;;;0.50;;
6898;SDS011;3488;42.616;23.350;2023-04-15T12:44:49;3.47;;;0.63;;
6898;SDS011;3488;42.616;23.350;2023-04-15T12:47:17;0.68;;;0.68;;
6898;SDS011;3488;42.616;23.350;2023-04-15T12:49:44;0.30;;;0.30;;
6898;SDS011;3488;42.616;23.350;2023-04-15T12:52:13;0.80;;;0.80;;
6898;SDS011;3488;42.616;23.350;2023-04-15T12:54:40;1.60;;;0.73;;
6898;SDS011;3488;42.616;23.350;2023-04-15T12:57:07;1.80;;;0.82;;
6898;SDS011;3488;42.616;23.350;2023-04-15T12:59:34;0.77;;;0.55;;
6898;SDS011;3488;42.616;23.350;2023-04-15T13:02:02;1.55;;;0.80;;
6898;SDS011;3488;42.616;23.350;2023-04-15T13:04:30;0.65;;;0.32;;
6898;SDS011;3488;42.616;23.350;2023-04-15T13:06:57;1.95;;;0.60;;
6898;SDS011;3488;42.616;23.350;2023-04-15T13:09:25;0.45;;;0.35;;
6898;SDS011;3488;42.616;23.350;2023-04-15T13:11:55;0.43;;;0.43;;
6898;SDS011;3488;42.616;23.350;2023-04-15T13:14:22;0.75;;;0.60;;
6898;SDS011;3488;42.616;23.350;2023-04-15T13:16:50;0.68;;;0.68;;
6898;SDS011;3488;42.616;23.350;2023-04-15T13:19:17;4.05;;;0.60;;
6898;SDS011;3488;42.616;23.350;2023-04-15T13:21:46;0.85;;;0.32;;
6898;SDS011;3488;42.616;23.350;2023-04-15T13:24:13;0.57;;;0.50;;
6898;SDS011;3488;42.616;23.350;2023-04-15T13:26:40;1.77;;;0.55;;
6898;SDS011;3488;42.616;23.350;2023-04-15T13:29:07;1.13;;;0.45;;
6898;SDS011;3488;42.616;23.350;2023-04-15T13:31:35;1.67;;;0.70;;
6898;SDS011;3488;42.616;23.350;2023-04-15T13:34:02;1.02;;;0.70;;
6898;SDS011;3488;42.616;23.350;2023-04-15T13:36:29;0.70;;;0.40;;
6898;SDS011;3488;42.616;23.350;2023-04-15T13:39:02;0.63;;;0.40;;
6898;SDS011;3488;42.616;23.350;2023-04-15T13:41:30;0.75;;;0.50;;
6898;SDS011;3488;42.616;23.350;2023-04-15T13:43:57;0.70;;;0.70;;
6898;SDS011;3488;42.616;23.350;2023-04-15T13:46:24;0.20;;;0.20;;
6898;SDS011;3488;42.616;23.350;2023-04-15T13:48:51;0.30;;;0.28;;
6898;SDS011;3488;42.616;23.350;2023-04-15T13:51:18;0.68;;;0.25;;
6898;SDS011;3488;42.616;23.350;2023-04-15T13:53:45;0.32;;;0.32;;
6898;SDS011;3488;42.616;23.350;2023-04-15T13:56:14;0.45;;;0.45;;
6898;SDS011;3488;42.616;23.350;2023-04-15T13:58:41;0.88;;;0.65;;
6898;SDS011;3488;42.616;23.350;2023-04-15T14:01:07;0.40;;;0.40;;
6898;SDS011;3488;42.616;23.350;2023-04-15T14:03:35;0.68;;;0.50;;
6898;SDS011;3488;42.616;23.350;2023-04-15T14:06:02;1.48;;;0.60;;
6898;SDS011;3488;42.616;23.350;2023-04-15T14:08:31;2.63;;;0.50;;
6898;SDS011;3488;42.616;23.350;2023-04-15T14:11:00;0.55;;;0.55;;
6898;SDS011;3488;42.616;23.350;2023-04-15T14:13:28;0.50;;;0.50;;
6898;SDS011;3488;42.616;23.350;2023-04-15T14:15:55;0.35;;;0.30;;
6898;SDS011;3488;42.616;23.350;2023-04-15T14:18:23;2.15;;;0.68;;
6898;SDS011;3488;42.616;23.350;2023-04-15T14:20:50;0.43;;;0.43;;
6898;SDS011;3488;42.616;23.350;2023-04-15T14:23:17;1.50;;;0.47;;
6898;SDS011;3488;42.616;23.350;2023-04-15T14:25:44;3.40;;;3.03;;
6898;SDS011;3488;42.616;23.350;2023-04-15T14:28:11;0.68;;;0.65;;
6898;SDS011;3488;42.616;23.350;2023-04-15T14:30:40;1.48;;;0.73;;
6898;SDS011;3488;42.616;23.350;2023-04-15T14:33:08;1.20;;;0.60;;
6898;SDS011;3488;42.616;23.350;2023-04-15T14:35:35;0.93;;;0.40;;
6898;SDS011;3488;42.616;23.350;2023-04-15T14:38:02;0.80;;;0.65;;
6898;SDS011;3488;42.616;23.350;2023-04-15T14:40:30;2.35;;;0.43;;
6898;SDS011;3488;42.616;23.350;2023-04-15T14:42:57;0.52;;;0.40;;
6898;SDS011;3488;42.616;23.350;2023-04-15T14:45:24;0.77;;;0.30;;
6898;SDS011;3488;42.616;23.350;2023-04-15T14:47:52;0.40;;;0.40;;
6898;SDS011;3488;42.616;23.350;2023-04-15T14:50:20;0.80;;;0.40;;
6898;SDS011;3488;42.616;23.350;2023-04-15T14:52:47;0.60;;;0.60;;
6898;SDS011;3488;42.616;23.350;2023-04-15T14:55:15;0.32;;;0.32;;
6898;SDS011;3488;42.616;23.350;2023-04-15T14:57:42;0.82;;;0.70;;
6898;SDS011;3488;42.616;23.350;2023-04-15T15:00:09;2.03;;;0.60;;
6898;SDS011;3488;42.616;23.350;2023-04-15T15:02:37;1.45;;;0.47;;
6898;SDS011;3488;42.616;23.350;2023-04-15T15:05:06;0.77;;;0.60;;
6898;SDS011;3488;42.616;23.350;2023-04-15T15:07:34;0.93;;;0.50;;
6898;SDS011;3488;42.616;23.350;2023-04-15T15:10:05;1.90;;;0.70;;
6898;SDS011;3488;42.616;23.350;2023-04-15T15:12:32;1.15;;;0.60;;